createdAt,value
2018-07-12T00:00:37.911Z,17.00
2018-07-12T00:03:05.106Z,17.20
2018-07-12T00:05:32.308Z,16.37
2018-07-12T00:07:59.779Z,16.63
2018-07-12T00:10:27.488Z,14.70
2018-07-12T00:12:54.679Z,17.13
2018-07-12T00:15:21.877Z,16.90
2018-07-12T00:17:49.081Z,15.90
2018-07-12T00:20:16.299Z,18.97
2018-07-12T00:22:43.484Z,16.57
2018-07-12T00:25:10.689Z,17.60
2018-07-12T00:27:37.925Z,17.43
2018-07-12T00:30:05.109Z,17.23
2018-07-12T00:32:32.332Z,16.47
2018-07-12T00:34:59.549Z,16.63
2018-07-12T00:37:27.020Z,15.17
2018-07-12T00:39:54.216Z,15.80
2018-07-12T00:42:21.437Z,15.37
2018-07-12T00:44:48.639Z,15.43
2018-07-12T00:47:15.919Z,16.60
2018-07-12T00:49:43.126Z,15.77
2018-07-12T00:52:10.320Z,15.30
2018-07-12T00:54:37.527Z,14.57
2018-07-12T00:57:04.744Z,13.23
2018-07-12T00:59:31.951Z,13.40
2018-07-12T01:01:59.164Z,13.87
2018-07-12T01:04:26.362Z,15.63
2018-07-12T01:06:53.912Z,14.77
2018-07-12T01:09:21.120Z,15.80
2018-07-12T01:11:48.315Z,16.60
2018-07-12T01:14:15.831Z,17.77
2018-07-12T01:16:43.036Z,15.60
2018-07-12T01:19:10.484Z,16.80
2018-07-12T01:21:38.001Z,15.00
2018-07-12T01:24:05.331Z,16.80
2018-07-12T01:26:32.769Z,16.37
2018-07-12T01:28:59.989Z,17.00
2018-07-12T01:31:27.258Z,16.80
2018-07-12T01:33:55.319Z,16.70
2018-07-12T01:36:22.509Z,18.27
2018-07-12T01:38:49.724Z,17.43
2018-07-12T01:41:16.957Z,16.20
2018-07-12T01:43:44.163Z,19.83
2018-07-12T01:46:11.359Z,17.03
2018-07-12T01:48:38.586Z,20.47
2018-07-12T01:51:05.788Z,19.00
2018-07-12T01:53:33.252Z,18.73
2018-07-12T01:56:00.466Z,19.23
2018-07-12T01:58:27.664Z,20.27
2018-07-12T02:00:54.857Z,16.87
2018-07-12T02:03:22.055Z,19.77
2018-07-12T02:05:49.260Z,19.40
2018-07-12T02:08:16.450Z,18.20
2018-07-12T02:10:43.907Z,17.43
2018-07-12T02:13:11.106Z,18.13
2018-07-12T02:15:38.300Z,17.97
2018-07-12T02:18:05.759Z,19.10
2018-07-12T02:20:33.226Z,16.93
2018-07-12T02:23:00.427Z,19.37
2018-07-12T02:25:27.620Z,20.60
2018-07-12T02:27:55.110Z,18.27
2018-07-12T02:30:22.320Z,18.87
2018-07-12T02:32:49.817Z,19.13
2018-07-12T02:35:17.020Z,19.23
2018-07-12T02:37:44.219Z,19.27
2018-07-12T02:40:11.435Z,20.93
2018-07-12T02:42:38.892Z,22.80
2018-07-12T02:45:06.340Z,21.40
2018-07-12T02:47:33.539Z,20.17
2018-07-12T02:50:00.734Z,22.27
2018-07-12T02:52:27.934Z,21.90
2018-07-12T02:54:55.140Z,22.50
2018-07-12T02:57:22.339Z,21.60
2018-07-12T02:59:49.535Z,21.33
2018-07-12T03:02:16.729Z,21.00
2018-07-12T03:04:43.943Z,22.10
2018-07-12T03:07:11.142Z,21.97
2018-07-12T03:09:38.348Z,20.03
2018-07-12T03:12:05.808Z,20.60
2018-07-12T03:14:33.278Z,23.07
2018-07-12T03:17:00.481Z,21.30
2018-07-12T03:19:27.693Z,25.63
2018-07-12T03:21:54.921Z,20.37
2018-07-12T03:24:22.381Z,22.30
2018-07-12T03:26:49.854Z,21.00
2018-07-12T03:29:17.054Z,19.50
2018-07-12T03:31:44.247Z,21.73
2018-07-12T03:34:11.448Z,23.40
2018-07-12T03:36:38.644Z,18.70
2018-07-12T03:39:05.840Z,19.67
2018-07-12T03:41:33.040Z,23.30
2018-07-12T03:44:00.512Z,20.30
2018-07-12T03:46:27.726Z,20.77
2018-07-12T03:48:54.915Z,19.97
2018-07-12T03:51:22.135Z,18.53
2018-07-12T03:53:49.340Z,20.67
2018-07-12T03:56:16.548Z,19.20
2018-07-12T03:58:44.028Z,21.23
2018-07-12T04:01:11.231Z,21.60
2018-07-12T04:03:38.471Z,23.80
2018-07-12T04:06:05.621Z,22.77
2018-07-12T04:08:32.832Z,22.50
2018-07-12T04:11:00.106Z,23.63
2018-07-12T04:13:27.244Z,19.60
2018-07-12T04:15:54.520Z,20.80
2018-07-12T04:18:21.723Z,21.53
2018-07-12T04:20:48.935Z,20.93
2018-07-12T04:23:16.140Z,20.00
2018-07-12T04:25:43.349Z,20.10
2018-07-12T04:28:10.548Z,18.40
2018-07-12T04:30:37.756Z,20.60
2018-07-12T04:33:04.965Z,17.83
2018-07-12T04:35:32.168Z,16.37
2018-07-12T04:37:59.623Z,20.10
2018-07-12T04:40:26.848Z,17.60
2018-07-12T04:42:54.070Z,19.03
2018-07-12T04:45:21.267Z,17.80
2018-07-12T04:47:48.484Z,18.90
2018-07-12T04:50:15.696Z,16.17
2018-07-12T04:52:42.913Z,15.07
2018-07-12T04:55:10.391Z,15.07
2018-07-12T04:57:37.598Z,13.90
2018-07-12T05:00:04.804Z,14.80
2018-07-12T05:02:32.024Z,15.43
2018-07-12T05:04:59.248Z,12.83
2018-07-12T05:07:26.445Z,12.50
2018-07-12T05:09:53.669Z,13.70
2018-07-12T05:12:20.881Z,12.10
2018-07-12T05:14:48.073Z,10.73
2018-07-12T05:17:15.308Z,11.40
2018-07-12T05:19:43.107Z,11.73
2018-07-12T05:22:10.572Z,11.20
2018-07-12T05:24:37.760Z,13.07
2018-07-12T05:27:04.961Z,9.33
2018-07-12T05:29:32.427Z,10.33
2018-07-12T05:31:59.627Z,11.53
2018-07-12T05:34:26.831Z,10.50
2018-07-12T05:36:56.340Z,10.43
2018-07-12T05:39:24.588Z,10.40
2018-07-12T05:41:52.715Z,10.60
2018-07-12T05:44:20.885Z,10.07
2018-07-12T05:46:49.612Z,11.77
2018-07-12T05:49:17.783Z,10.90
2018-07-12T05:51:46.612Z,11.20
2018-07-12T05:54:15.507Z,11.30
2018-07-12T05:56:43.712Z,11.33
2018-07-12T05:59:11.895Z,12.53
2018-07-12T06:01:51.445Z,11.30
2018-07-12T06:04:19.634Z,12.73
2018-07-12T06:06:47.801Z,12.93
2018-07-12T06:09:16.239Z,11.73
2018-07-12T06:11:44.428Z,11.30
2018-07-12T06:14:12.632Z,11.33
2018-07-12T06:16:40.833Z,10.70
2018-07-12T06:19:09.020Z,11.33
2018-07-12T06:21:37.226Z,10.90
2018-07-12T06:24:05.415Z,9.93
2018-07-12T06:26:33.608Z,9.60
2018-07-12T06:29:01.794Z,10.47
2018-07-12T06:31:29.968Z,10.67
2018-07-12T06:33:58.136Z,9.57
2018-07-12T06:36:26.129Z,9.30
2018-07-12T06:38:54.401Z,11.07
2018-07-12T06:41:22.586Z,10.10
2018-07-12T06:43:50.773Z,9.00
2018-07-12T06:46:18.939Z,9.33
2018-07-12T06:48:47.133Z,8.93
2018-07-12T06:51:15.392Z,9.00
2018-07-12T06:53:43.571Z,9.90
2018-07-12T06:56:11.729Z,9.37
2018-07-12T06:58:39.900Z,9.90
2018-07-12T07:01:08.102Z,9.93
2018-07-12T07:03:36.273Z,8.07
2018-07-12T07:06:04.459Z,8.10
2018-07-12T07:08:32.629Z,8.37
2018-07-12T07:11:00.808Z,8.57
2018-07-12T07:13:29.000Z,8.17
2018-07-12T07:15:57.188Z,8.83
2018-07-12T07:18:25.353Z,9.90
2018-07-12T07:20:53.555Z,8.23
2018-07-12T07:23:21.757Z,8.20
2018-07-12T07:25:49.945Z,8.07
2018-07-12T07:28:18.125Z,7.30
2018-07-12T07:30:46.300Z,8.77
2018-07-12T07:33:14.507Z,8.70
2018-07-12T07:35:42.760Z,9.03
2018-07-12T07:38:10.895Z,8.37
2018-07-12T07:40:39.082Z,8.53
2018-07-12T07:43:07.312Z,8.97
2018-07-12T07:45:35.702Z,10.67
2018-07-12T07:48:03.895Z,11.90
2018-07-12T07:50:32.068Z,12.40
2018-07-12T07:53:00.244Z,8.17
2018-07-12T07:55:28.435Z,9.07
2018-07-12T07:57:56.688Z,7.20
2018-07-12T08:00:24.894Z,8.50
2018-07-12T08:02:53.134Z,7.50
2018-07-12T08:05:21.343Z,9.13
2018-07-12T08:07:49.509Z,9.60
2018-07-12T08:10:17.769Z,10.63
2018-07-12T08:12:45.972Z,9.33
2018-07-12T08:15:14.985Z,8.67
2018-07-12T08:17:43.389Z,9.10
2018-07-12T08:20:11.660Z,7.70
2018-07-12T08:22:40.153Z,5.47
2018-07-12T08:25:08.441Z,9.90
2018-07-12T08:27:38.067Z,7.13
2018-07-12T08:30:06.368Z,6.47
2018-07-12T08:33:34.106Z,6.20
2018-07-12T08:36:02.306Z,6.27
2018-07-12T08:38:30.540Z,7.33
2018-07-12T08:40:58.731Z,7.43
2018-07-12T08:43:27.063Z,7.47
2018-07-12T15:16:17.171Z,3.23
2018-07-12T15:18:45.532Z,3.50
2018-07-12T15:21:13.753Z,3.20
2018-07-12T15:23:42.303Z,2.70
2018-07-12T15:26:10.371Z,2.50
2018-07-12T15:28:38.416Z,3.17
2018-07-12T15:31:06.423Z,3.07
2018-07-12T15:33:35.268Z,3.00
2018-07-12T15:36:03.542Z,3.10
2018-07-12T15:38:31.755Z,3.27
2018-07-12T15:41:00.131Z,2.70
2018-07-12T15:43:28.221Z,2.90
2018-07-12T15:45:57.235Z,2.87
2018-07-12T15:48:25.553Z,2.70
2018-07-12T15:50:54.116Z,3.00
2018-07-12T15:53:22.508Z,3.07
2018-07-12T15:55:50.789Z,6.80
2018-07-12T15:58:19.074Z,3.00
2018-07-12T16:00:47.348Z,2.67
2018-07-12T16:03:15.630Z,3.00
2018-07-12T16:05:43.638Z,2.90
2018-07-12T16:08:12.016Z,2.97
2018-07-12T16:10:40.316Z,2.60
2018-07-12T16:13:08.718Z,2.50
2018-07-12T16:15:37.113Z,2.63
2018-07-12T16:18:05.435Z,1.93
2018-07-12T16:20:33.721Z,3.33
2018-07-12T16:23:02.084Z,2.60
2018-07-12T16:25:30.448Z,3.20
2018-07-12T16:27:59.527Z,2.30
2018-07-12T16:30:27.860Z,2.87
2018-07-12T16:32:56.224Z,3.00
2018-07-12T16:35:24.620Z,2.80
2018-07-12T16:37:52.836Z,2.83
2018-07-12T16:40:21.013Z,2.47
2018-07-12T16:42:49.378Z,2.70
2018-07-12T16:45:18.412Z,3.10
2018-07-12T16:47:46.707Z,2.77
2018-07-12T16:50:15.041Z,3.27
2018-07-12T16:52:43.643Z,2.77
2018-07-12T16:55:12.240Z,3.70
2018-07-12T16:57:41.594Z,3.03
2018-07-12T17:00:09.580Z,3.00
2018-07-12T17:02:38.780Z,3.13
2018-07-12T17:05:07.955Z,2.83
2018-07-12T17:07:36.366Z,2.73
2018-07-12T17:10:04.792Z,2.23
2018-07-12T17:12:33.017Z,2.73
2018-07-12T17:15:01.461Z,3.10
2018-07-12T17:17:29.615Z,2.33
2018-07-12T17:19:57.817Z,3.47
2018-07-12T17:22:25.802Z,3.20
2018-07-12T17:24:54.000Z,3.13
2018-07-12T17:27:22.164Z,2.97
2018-07-12T17:29:50.406Z,2.20
2018-07-12T17:32:18.362Z,2.73
2018-07-12T17:34:46.595Z,2.80
2018-07-12T17:37:15.704Z,2.90
2018-07-12T17:39:43.897Z,3.27
2018-07-12T17:42:12.147Z,2.97
2018-07-12T17:44:40.324Z,3.37
2018-07-12T17:47:08.527Z,3.00
2018-07-12T17:49:37.056Z,2.63
2018-07-12T17:52:05.511Z,3.57
2018-07-12T17:54:33.439Z,2.50
2018-07-12T17:57:01.626Z,2.20
2018-07-12T17:59:29.791Z,3.57
2018-07-12T18:01:58.121Z,3.20
2018-07-12T18:04:26.321Z,2.70
2018-07-12T18:06:54.503Z,3.50
2018-07-12T18:09:22.728Z,3.00
2018-07-12T18:11:50.704Z,3.60
2018-07-12T18:14:18.948Z,3.47
2018-07-12T18:16:47.118Z,2.77
2018-07-12T18:19:15.309Z,2.57
2018-07-12T18:21:43.344Z,3.27
2018-07-12T18:24:11.624Z,3.30
2018-07-12T18:26:39.817Z,3.27
2018-07-12T18:29:07.756Z,3.50
2018-07-12T18:31:36.833Z,3.57
2018-07-12T18:34:05.052Z,3.97
2018-07-12T18:36:33.044Z,2.63
2018-07-12T18:39:01.232Z,3.37
2018-07-12T18:41:29.468Z,3.50
2018-07-12T18:43:57.466Z,3.20
2018-07-12T18:46:25.690Z,4.27
2018-07-12T18:48:53.862Z,2.87
2018-07-12T18:51:22.054Z,3.80
2018-07-12T18:53:50.252Z,3.70
2018-07-12T18:56:18.343Z,4.43
2018-07-12T18:58:46.622Z,3.63
2018-07-12T19:01:14.859Z,3.53
2018-07-12T19:03:43.078Z,3.43
2018-07-12T19:06:11.249Z,3.70
2018-07-12T19:08:39.536Z,4.23
2018-07-12T19:11:07.748Z,3.50
2018-07-12T19:13:35.988Z,3.90
2018-07-12T19:16:04.216Z,3.33
2018-07-12T19:18:32.239Z,4.23
2018-07-12T19:21:00.464Z,4.13
2018-07-12T19:23:28.436Z,3.97
2018-07-12T19:25:56.628Z,3.77
2018-07-12T19:28:24.800Z,3.37
2018-07-12T19:30:52.999Z,3.40
2018-07-12T19:33:21.188Z,3.10
2018-07-12T19:35:49.392Z,3.70
2018-07-12T19:38:17.602Z,3.60
2018-07-12T19:40:45.796Z,4.27
2018-07-12T19:43:13.972Z,3.50
2018-07-12T19:45:42.160Z,3.50
2018-07-12T19:48:10.365Z,3.83
2018-07-12T19:50:38.337Z,3.73
2018-07-12T19:53:06.275Z,3.40
2018-07-12T19:55:34.493Z,3.37
2018-07-12T19:58:02.703Z,3.60
2018-07-12T20:00:30.905Z,4.37
2018-07-12T20:02:59.088Z,4.07
2018-07-12T20:05:27.285Z,3.60
2018-07-12T20:07:55.227Z,4.10
2018-07-12T20:10:23.421Z,4.53
2018-07-12T20:12:51.361Z,3.70
2018-07-12T20:15:19.548Z,4.53
2018-07-12T20:17:47.746Z,4.93
2018-07-12T20:20:15.920Z,5.20
2018-07-12T20:22:44.168Z,4.33
2018-07-12T20:25:12.382Z,4.67
2018-07-12T20:27:40.486Z,4.20
2018-07-12T20:30:08.724Z,5.17
2018-07-12T20:32:37.487Z,5.10
2018-07-12T20:35:05.445Z,4.97
2018-07-12T20:37:33.639Z,5.07
2018-07-12T20:40:01.950Z,5.30
2018-07-12T20:42:30.117Z,4.47
2018-07-12T20:44:58.321Z,5.20
2018-07-12T20:47:26.511Z,4.80
2018-07-12T20:49:54.752Z,5.83
2018-07-12T20:52:22.957Z,4.43
2018-07-12T20:54:51.253Z,4.77
2018-07-12T20:57:19.364Z,5.20
2018-07-12T20:59:47.557Z,5.10
2018-07-12T21:02:15.745Z,5.20
2018-07-12T21:04:43.937Z,4.47
2018-07-12T21:07:12.121Z,4.07
2018-07-12T21:09:40.293Z,4.10
2018-07-12T21:12:08.235Z,4.10
2018-07-12T21:14:36.427Z,5.10
2018-07-12T21:17:04.657Z,4.13
2018-07-12T21:19:32.843Z,4.20
2018-07-12T21:22:01.124Z,4.87
2018-07-12T21:24:29.312Z,4.83
2018-07-12T21:26:57.492Z,4.40
2018-07-12T21:29:25.700Z,4.40
2018-07-12T21:31:53.884Z,4.33
2018-07-12T21:34:22.076Z,4.13
2018-07-12T21:36:50.284Z,4.20
2018-07-12T21:39:18.487Z,4.70
2018-07-12T21:41:46.663Z,5.33
2018-07-12T21:44:14.909Z,4.37
2018-07-12T21:46:43.133Z,4.03
2018-07-12T21:49:11.339Z,4.97
2018-07-12T21:51:39.553Z,3.97
2018-07-12T21:54:07.757Z,4.70
2018-07-12T21:56:35.975Z,5.00
2018-07-12T21:59:04.168Z,5.00
2018-07-12T22:01:32.112Z,5.30
2018-07-12T22:04:00.337Z,4.33
2018-07-12T22:08:47.116Z,4.47
2018-07-12T22:11:15.392Z,4.80
2018-07-12T22:13:43.644Z,5.10
2018-07-12T22:16:11.823Z,4.27
2018-07-12T22:18:39.993Z,5.00
2018-07-12T22:21:08.202Z,3.57
2018-07-12T22:23:36.368Z,4.70
2018-07-12T22:26:04.584Z,5.23
2018-07-12T22:28:32.752Z,4.67
2018-07-12T22:31:00.944Z,4.43
2018-07-12T22:33:29.119Z,4.40
2018-07-12T22:35:57.298Z,5.30
2018-07-12T22:38:25.467Z,4.70
2018-07-12T22:40:53.648Z,5.33
2018-07-12T22:43:21.825Z,5.20
2018-07-12T22:45:50.014Z,4.37
2018-07-12T22:48:18.307Z,5.40
2018-07-12T22:50:46.395Z,4.33
2018-07-12T22:53:14.372Z,5.00
2018-07-12T22:55:42.558Z,4.60
2018-07-12T22:58:10.722Z,5.40
2018-07-12T23:00:38.901Z,4.40
2018-07-12T23:03:07.064Z,4.30
2018-07-12T23:05:35.243Z,4.30
2018-07-12T23:08:03.538Z,4.33
2018-07-12T23:10:31.716Z,4.63
2018-07-12T23:12:59.896Z,4.60
2018-07-12T23:15:28.163Z,4.10
2018-07-12T23:17:56.340Z,4.80
2018-07-12T23:20:24.507Z,4.30
2018-07-12T23:22:52.702Z,4.43
2018-07-12T23:25:20.870Z,5.00
2018-07-12T23:27:49.056Z,5.33
2018-07-12T23:30:17.244Z,4.70
2018-07-12T23:32:45.475Z,4.53
2018-07-12T23:35:13.776Z,4.40
2018-07-12T23:37:41.977Z,4.03
2018-07-12T23:40:10.152Z,4.13
2018-07-12T23:42:38.342Z,4.10
2018-07-12T23:45:06.288Z,4.47
2018-07-12T23:47:34.460Z,4.13
2018-07-12T23:50:02.719Z,3.90
2018-07-12T23:52:30.892Z,4.70
2018-07-12T23:54:59.076Z,4.80
2018-07-12T23:57:27.253Z,4.13
2018-07-12T23:59:55.419Z,4.60
